Terminal Aerodrome Forecast
Issued by NWS

Home | Current Version | Previous Version | Text Only | Print | Product List | Glossary On
Versions: 1 2 3 4 5 6 7 8 9 10 11 12 13 14 15 16 17 18 19 20 21 22
000
FTUS44 KLZK 221300 AAA
TAFLIT
TAF AMD
KLIT 221339Z 2214/2312 16008G15KT 6SM -RA BR BKN015 OVC025
      TEMPO 2214/2218 4SM -RA OVC005
     FM221800 16008G15KT P6SM VCSH FEW008 BKN035 OVC050
      TEMPO 2218/2220 6SM -SHRA BR SCT008 OVC015
     FM222200 21006KT P6SM VCSH BKN025 BKN250
     FM230300 28007KT P6SM SCT025 BKN250=

USA.gov is the U.S. government's official web portal to all federal, state and local government web resources and services.